Hlavní strana
METAR-TAF:

METAR-TAF

Letiště :

Letiště Cayenne

Cayenne, Francouzská Guyana

zeměpisná šířka: 04-50N, zeměpisná délka: 052-22W, výška: 105 m

Aktuální stav počasí

Zpráva byla vytvořena před 44 minutami, v 16:00 UTC
Východoseverovýchodní vítr 8 kt, proměnlivý mezi severním a východním
Teplota 32°C
Vlhkost vzduchu 59%
Tlak 1012 hPa
Viditelnost 10 km a více

METAR: SOCA 191600Z AUTO 06008KT 360V090 9999 SCT031/// SCT038/// ///TCU 32/23 Q1012 BECMG FEW020

Čas: 13:44 (16:44 UTC)

Předpověď počasí

Zpráva byla vytvořena před 6 hodinami a 44 minutami, v 10:00 UTC
Předpověď platná od 19 v 12 UTC do 20 v 12 UTC
vítr z různých směrů 3 kt
Viditelnost 10 km a více
Skoro jasno ve výšce 2000 ft
Změna
od 19 v 13 UTC do 19 v 15 UTC
Východoseverovýchodní vítr 10 kt
Změna
od 19 v 22 UTC do 19 v 23 UTC
vítr z různých směrů 3 kt

TAF: SOCA 191000Z 1912/2012 VRB03KT 9999 FEW020 BECMG 1913/1915 07010KT BECMG 1922/1923 VRB03KT

Stav a předpovědi počasí z více než 4 000 letišť (zprávy METAR a TAF).

Červené a žluté tečky na mapě představují dostupné meteorologické stanice.

Když kurzor umístíte na tečku, zobrazí se název stanice.

Pak kliknutím zobrazíte stav a předpověď počasí.

Chcete-li změnit mapu, kliknutím na zelené tlačítko se znaménkem +mapu přiblížíte, kliknutím na zelené tlačítko se znaménkem – mapu oddálíte a kliknutím na zelené šipky přejdete na sousední mapy.


METAR-TAF: